createdAt,value
2023-02-11T00:01:20.221Z,57.20
2023-02-11T00:03:48.324Z,62.60
2023-02-11T00:06:16.587Z,65.80
2023-02-11T00:08:46.031Z,59.00
2023-02-11T00:11:14.696Z,60.00
2023-02-11T00:13:42.800Z,52.40
2023-02-11T00:16:11.617Z,56.33
2023-02-11T00:18:39.668Z,55.00
2023-02-11T00:21:09.026Z,61.40
2023-02-11T00:23:37.281Z,55.00
2023-02-11T00:26:12.186Z,62.00
2023-02-11T00:28:41.431Z,61.40
2023-02-11T00:31:12.030Z,64.60
2023-02-11T00:33:40.255Z,63.75
2023-02-11T00:36:10.346Z,62.50
2023-02-11T00:38:38.949Z,66.40
2023-02-11T00:41:08.733Z,66.00
2023-02-11T00:43:36.882Z,65.40
2023-02-11T00:46:05.217Z,62.80
2023-02-11T00:48:33.296Z,61.40
2023-02-11T00:51:02.094Z,61.75
2023-02-11T00:53:30.137Z,68.60
2023-02-11T00:55:58.181Z,63.80
2023-02-11T00:58:28.534Z,61.60
2023-02-11T01:00:56.737Z,64.25
2023-02-11T01:03:25.969Z,69.80
2023-02-11T01:05:53.992Z,68.00
2023-02-11T01:08:22.058Z,65.00
2023-02-11T01:10:55.973Z,66.00
2023-02-11T01:13:24.215Z,55.25
2023-02-11T01:15:53.788Z,56.00
2023-02-11T01:18:21.997Z,68.25
2023-02-11T01:20:50.294Z,69.00
2023-02-11T01:23:18.339Z,66.00
2023-02-11T01:25:46.578Z,62.00
2023-02-11T01:28:17.889Z,67.75
2023-02-11T01:30:46.036Z,65.00
2023-02-11T01:33:15.494Z,63.50
2023-02-11T01:35:43.596Z,65.80
2023-02-11T01:38:15.967Z,71.00
2023-02-11T01:40:48.499Z,70.00
2023-02-11T01:43:16.584Z,64.50
2023-02-11T01:46:29.590Z,62.00
2023-02-11T01:49:00.696Z,69.50
2023-02-11T01:51:30.179Z,75.00
2023-02-11T01:54:15.930Z,70.75
2023-02-11T01:57:04.151Z,71.00
2023-02-11T01:59:33.313Z,64.50
2023-02-11T02:02:03.593Z,59.50
2023-02-11T02:04:36.681Z,74.75
2023-02-11T02:07:07.425Z,71.40
2023-02-11T02:09:39.203Z,64.00
2023-02-11T02:12:07.312Z,71.67
2023-02-11T02:14:39.456Z,67.00
2023-02-11T02:17:07.719Z,67.50
2023-02-11T02:20:18.066Z,72.00
2023-02-11T02:22:59.032Z,68.75
2023-02-11T02:25:36.141Z,70.25
2023-02-11T02:28:12.668Z,74.00
2023-02-11T02:31:00.121Z,70.25
2023-02-11T02:33:42.402Z,69.20
2023-02-11T02:36:15.233Z,72.80
2023-02-11T02:38:48.581Z,73.50
2023-02-11T02:41:17.776Z,66.50
2023-02-11T02:43:47.247Z,66.80
2023-02-11T02:46:16.828Z,69.40
2023-02-11T02:48:46.259Z,73.80
2023-02-11T02:51:28.451Z,69.33
2023-02-11T02:54:00.837Z,71.80
2023-02-11T02:56:32.768Z,70.40
2023-02-11T02:59:07.496Z,73.00
2023-02-11T03:01:38.610Z,71.75
2023-02-11T03:04:13.395Z,71.00
2023-02-11T03:06:46.545Z,78.50
2023-02-11T03:09:15.715Z,70.00
2023-02-11T03:11:43.753Z,65.00
2023-02-11T03:14:13.456Z,69.20
2023-02-11T03:16:41.525Z,70.60
2023-02-11T03:19:12.973Z,78.00
2023-02-11T03:21:41.359Z,69.00
2023-02-11T03:24:11.322Z,82.00
2023-02-11T03:26:40.147Z,67.60
2023-02-11T03:29:11.012Z,66.50
2023-02-11T03:31:42.770Z,71.40
2023-02-11T03:34:14.566Z,69.75
2023-02-11T03:36:46.022Z,73.40
2023-02-11T03:39:14.775Z,78.75
2023-02-11T03:41:42.862Z,72.50
2023-02-11T03:44:10.899Z,69.75
2023-02-11T03:46:39.335Z,73.40
2023-02-11T03:49:10.120Z,69.00
2023-02-11T03:51:39.489Z,68.80
2023-02-11T03:54:09.837Z,72.00
2023-02-11T03:56:39.840Z,71.20
2023-02-11T03:59:08.818Z,69.50
2023-02-11T04:01:36.832Z,76.00
2023-02-11T04:04:05.263Z,73.00
2023-02-11T04:06:33.268Z,72.00
2023-02-11T04:09:02.667Z,77.60
2023-02-11T04:11:30.689Z,75.60
2023-02-11T04:13:58.735Z,75.00
2023-02-11T04:16:28.118Z,69.50
2023-02-11T04:18:56.194Z,60.00
2023-02-11T04:21:24.214Z,68.00
2023-02-11T04:23:52.279Z,65.00
2023-02-11T04:26:21.647Z,68.25
2023-02-11T04:28:49.678Z,65.50
2023-02-11T04:31:17.752Z,67.25
2023-02-11T04:33:45.920Z,71.00
2023-02-11T04:36:14.302Z,71.20
2023-02-11T04:38:42.348Z,70.20
2023-02-11T04:41:10.356Z,72.75
2023-02-11T04:43:39.756Z,64.80
2023-02-11T04:46:07.831Z,74.80
2023-02-11T04:48:35.980Z,67.00
2023-02-11T04:51:03.993Z,64.75
2023-02-11T04:53:32.047Z,67.00
2023-02-11T04:56:00.075Z,63.50
2023-02-11T04:58:28.152Z,72.40
2023-02-11T05:00:57.547Z,66.50
2023-02-11T05:03:25.608Z,70.60
2023-02-11T05:05:53.844Z,66.50
2023-02-11T05:08:21.976Z,69.80
2023-02-11T05:10:50.052Z,62.00
2023-02-11T05:13:18.069Z,74.00
2023-02-11T05:15:46.120Z,67.60
2023-02-11T05:18:15.891Z,68.25
2023-02-11T05:20:44.048Z,68.33
2023-02-11T05:23:12.095Z,63.60
2023-02-11T05:25:40.130Z,66.00
2023-02-11T05:28:08.223Z,66.60
2023-02-11T05:30:36.375Z,61.00
2023-02-11T05:33:04.478Z,62.50
2023-02-11T05:35:33.900Z,63.60
2023-02-11T05:38:01.916Z,63.80
2023-02-11T05:40:29.960Z,66.00
2023-02-11T05:42:57.962Z,63.00
2023-02-11T05:45:26.008Z,60.00
2023-02-11T05:47:54.018Z,65.50
2023-02-11T05:50:22.064Z,65.50
2023-02-11T05:52:54.788Z,64.40
2023-02-11T05:55:23.237Z,61.50
2023-02-11T05:57:51.260Z,64.80
2023-02-11T06:00:19.594Z,68.25
2023-02-11T06:02:47.682Z,67.00
2023-02-11T06:05:15.745Z,67.00
2023-02-11T06:07:43.795Z,70.00
2023-02-11T06:10:13.294Z,67.80
2023-02-11T06:12:41.314Z,67.00
2023-02-11T06:15:09.530Z,66.50
2023-02-11T06:17:37.665Z,64.00
2023-02-11T06:20:06.420Z,63.60
2023-02-11T06:22:35.089Z,62.25
2023-02-11T06:25:03.319Z,66.80
2023-02-11T06:27:32.708Z,63.25
2023-02-11T06:30:00.784Z,70.75
2023-02-11T06:32:44.038Z,72.40
2023-02-11T06:35:13.296Z,63.80
2023-02-11T06:37:41.342Z,68.00
2023-02-11T06:40:09.737Z,68.50
2023-02-11T06:42:39.634Z,63.60
2023-02-11T06:45:09.483Z,64.60
2023-02-11T06:47:37.662Z,69.00
2023-02-11T06:50:06.158Z,68.50
2023-02-11T06:52:34.236Z,58.00
2023-02-11T06:55:02.649Z,64.25
2023-02-11T06:57:31.452Z,59.25
2023-02-11T07:00:00.896Z,69.40
2023-02-11T07:02:28.980Z,67.75
2023-02-11T07:04:57.045Z,68.50
2023-02-11T07:07:25.059Z,70.00
2023-02-11T07:09:53.103Z,66.50
2023-02-11T07:12:21.137Z,67.00
2023-02-11T07:14:49.176Z,67.50
2023-02-11T07:17:18.572Z,68.40
2023-02-11T07:19:46.623Z,73.60
2023-02-11T07:22:14.671Z,63.25
2023-02-11T07:24:42.771Z,67.00
2023-02-11T07:27:10.776Z,69.50
2023-02-11T07:29:39.063Z,71.00
2023-02-11T07:32:07.319Z,64.40
2023-02-11T07:34:37.011Z,68.25
2023-02-11T07:37:05.062Z,66.00
2023-02-11T07:39:33.184Z,64.00
2023-02-11T07:42:01.259Z,66.00
2023-02-11T07:44:29.577Z,65.60
2023-02-11T07:46:57.773Z,70.50
2023-02-11T07:49:25.944Z,72.50
2023-02-11T07:51:55.368Z,64.60
2023-02-11T07:54:23.404Z,72.20
2023-02-11T07:56:51.556Z,63.00
2023-02-11T07:59:19.547Z,72.50
2023-02-11T08:01:47.638Z,69.20
2023-02-11T08:04:15.690Z,67.60
2023-02-11T08:06:45.155Z,60.00
2023-02-11T08:09:15.993Z,66.25
2023-02-11T08:11:44.133Z,66.00
2023-02-11T08:14:12.276Z,70.00
2023-02-11T08:16:40.420Z,68.40
2023-02-11T08:19:09.291Z,63.80
2023-02-11T08:21:37.356Z,62.40
2023-02-11T08:24:05.766Z,61.20
2023-02-11T08:26:35.613Z,66.50
2023-02-11T08:29:06.490Z,61.50
2023-02-11T08:31:36.305Z,57.80
2023-02-11T08:34:04.423Z,62.75
2023-02-11T08:36:34.217Z,61.50
2023-02-11T08:39:17.600Z,59.40
2023-02-11T08:41:48.915Z,65.75
2023-02-11T08:44:17.235Z,56.80
2023-02-11T08:46:45.275Z,63.00
2023-02-11T08:49:13.301Z,63.50
2023-02-11T08:51:41.347Z,60.40
2023-02-11T08:54:10.160Z,61.60
2023-02-11T08:56:38.326Z,60.33
2023-02-11T08:59:07.763Z,61.00
2023-02-11T09:01:35.843Z,60.80
2023-02-11T09:04:03.905Z,59.00
2023-02-11T09:06:31.957Z,59.00
2023-02-11T09:08:59.973Z,62.80
2023-02-11T09:11:29.090Z,60.80
2023-02-11T09:13:57.116Z,65.25
2023-02-11T09:16:28.059Z,59.00
2023-02-11T09:18:57.373Z,63.00
2023-02-11T09:21:25.565Z,55.25
2023-02-11T09:23:53.599Z,59.50
2023-02-11T09:26:22.854Z,56.75
2023-02-11T09:28:51.357Z,56.00
2023-02-11T09:31:20.451Z,56.50
2023-02-11T09:33:50.731Z,55.33
2023-02-11T09:36:19.757Z,60.00
2023-02-11T09:38:47.885Z,51.40
2023-02-11T09:41:34.366Z,56.00
2023-02-11T09:44:04.871Z,59.50
2023-02-11T09:46:34.188Z,47.80
2023-02-11T09:49:03.741Z,68.20
2023-02-11T09:51:36.930Z,50.33
2023-02-11T09:54:06.642Z,47.60
2023-02-11T09:56:34.686Z,55.40
2023-02-11T09:59:02.699Z,59.00
2023-02-11T10:01:32.472Z,53.00
2023-02-11T10:04:07.624Z,53.25
2023-02-11T10:06:40.138Z,54.00
2023-02-11T10:09:34.055Z,45.50
2023-02-11T10:12:12.343Z,49.00
2023-02-11T10:15:01.945Z,44.50
2023-02-11T10:17:33.979Z,38.00
2023-02-11T10:20:11.935Z,38.75
2023-02-11T10:22:42.561Z,44.00
2023-02-11T10:25:22.311Z,37.50
2023-02-11T10:27:50.353Z,42.40
2023-02-11T10:30:22.710Z,38.60
2023-02-11T10:32:52.539Z,42.20
2023-02-11T10:35:22.898Z,36.80
2023-02-11T10:37:51.208Z,44.25
2023-02-11T10:40:20.395Z,38.00
2023-02-11T10:42:50.357Z,34.20
2023-02-11T10:45:22.564Z,38.25
2023-02-11T10:47:50.608Z,36.60
2023-02-11T10:50:21.680Z,38.00
2023-02-11T10:52:51.085Z,37.00
2023-02-11T10:55:20.894Z,37.20
2023-02-11T10:57:55.187Z,29.20
2023-02-11T11:00:36.814Z,27.00
2023-02-11T11:03:05.839Z,32.40
2023-02-11T11:05:35.399Z,25.75
2023-02-11T11:08:06.049Z,32.00
2023-02-11T11:10:43.325Z,31.40
2023-02-11T11:13:43.431Z,31.40
2023-02-11T11:16:18.314Z,30.80
2023-02-11T11:18:46.986Z,26.50
2023-02-11T11:21:15.953Z,22.00
2023-02-11T11:23:54.124Z,37.75
2023-02-11T11:26:23.225Z,25.00
2023-02-11T11:28:59.253Z,26.00
2023-02-11T11:31:29.805Z,31.00
2023-02-11T11:33:59.220Z,27.25
2023-02-11T11:36:33.786Z,29.00
2023-02-11T11:39:04.464Z,23.50
2023-02-11T11:41:33.906Z,31.40
2023-02-11T11:44:04.018Z,22.40
2023-02-11T11:46:34.591Z,24.75
2023-02-11T11:49:18.512Z,24.25
2023-02-11T11:51:48.865Z,25.50
2023-02-11T11:54:18.802Z,23.00
2023-02-11T11:56:51.753Z,16.60
2023-02-11T11:59:20.455Z,16.00
2023-02-11T12:01:56.252Z,16.40
2023-02-11T12:04:58.235Z,16.00
2023-02-11T12:07:33.808Z,21.00
2023-02-11T12:10:27.352Z,19.20
2023-02-11T12:12:58.508Z,21.20
2023-02-11T12:15:32.211Z,14.40
2023-02-11T12:18:11.166Z,22.60
2023-02-11T12:20:44.653Z,18.80
2023-02-11T12:23:39.664Z,12.25
2023-02-11T12:26:13.850Z,18.00
2023-02-11T12:28:45.942Z,14.40
2023-02-11T12:31:20.160Z,14.60
2023-02-11T12:34:02.308Z,18.00
2023-02-11T12:36:38.977Z,17.00
2023-02-11T12:39:13.294Z,14.50
2023-02-11T12:42:07.870Z,20.40
2023-02-11T12:44:47.213Z,15.80
2023-02-11T12:47:19.177Z,15.00
2023-02-11T12:50:00.257Z,11.00
2023-02-11T12:52:50.173Z,17.60
2023-02-11T12:55:21.840Z,17.60
2023-02-11T12:57:51.604Z,14.00
2023-02-11T13:00:22.238Z,15.60
2023-02-11T13:02:54.493Z,15.25
2023-02-11T13:05:26.382Z,16.00
2023-02-11T13:07:55.421Z,21.25
2023-02-11T13:10:27.364Z,12.60
2023-02-11T13:13:14.576Z,16.00
2023-02-11T13:15:42.965Z,17.60
2023-02-11T13:18:29.380Z,12.80
2023-02-11T13:21:00.519Z,12.00
2023-02-11T13:23:32.120Z,15.00
2023-02-11T13:26:06.835Z,14.60
2023-02-11T13:28:42.710Z,10.50
2023-02-11T13:31:12.702Z,15.00
2023-02-11T13:33:43.145Z,15.40
2023-02-11T13:36:19.084Z,18.00
2023-02-11T13:39:00.984Z,19.00
2023-02-11T13:41:34.330Z,16.50
2023-02-11T13:44:22.171Z,15.60
2023-02-11T13:46:54.133Z,15.50
2023-02-11T13:49:23.764Z,19.00
2023-02-11T13:51:51.818Z,13.40
2023-02-11T13:54:28.419Z,11.60
2023-02-11T13:57:27.299Z,16.00
2023-02-11T13:59:56.987Z,12.60
2023-02-11T14:02:45.403Z,12.00
2023-02-11T14:05:55.336Z,12.00
2023-02-11T14:08:42.587Z,10.50
2023-02-11T14:11:41.592Z,17.00
2023-02-11T14:14:24.019Z,11.00
2023-02-11T14:17:35.771Z,15.20
2023-02-11T14:20:05.271Z,11.60
2023-02-11T14:22:42.201Z,10.25
2023-02-11T14:25:17.996Z,12.50
2023-02-11T14:27:47.361Z,8.75
2023-02-11T14:30:51.150Z,11.00
2023-02-11T14:33:39.506Z,12.00
2023-02-11T14:36:14.450Z,12.40
2023-02-11T14:38:48.536Z,10.00
2023-02-11T14:41:19.635Z,10.00
2023-02-11T14:43:49.424Z,18.50
2023-02-11T14:46:17.651Z,10.40
2023-02-11T14:48:48.393Z,15.00
2023-02-11T14:51:19.261Z,12.00
2023-02-11T14:53:48.894Z,11.40
2023-02-11T14:56:21.000Z,15.50
2023-02-11T14:58:49.360Z,9.60
2023-02-11T15:01:32.525Z,11.00
2023-02-11T15:04:03.019Z,10.00
2023-02-11T15:06:32.785Z,16.40
2023-02-11T15:09:02.288Z,12.00
2023-02-11T15:11:31.170Z,12.20
2023-02-11T15:14:00.870Z,15.00
2023-02-11T15:16:28.923Z,9.00
2023-02-11T15:18:58.082Z,17.00
2023-02-11T15:21:29.832Z,7.20
2023-02-11T15:23:59.483Z,8.00
2023-02-11T15:26:27.537Z,10.00
2023-02-11T15:28:56.135Z,6.20
2023-02-11T15:31:25.015Z,9.00
2023-02-11T15:33:53.232Z,7.60
2023-02-11T15:36:23.749Z,6.20
2023-02-11T15:39:21.019Z,14.00
2023-02-11T15:41:49.041Z,8.00
2023-02-11T15:44:30.225Z,6.20
2023-02-11T15:46:58.459Z,5.00
2023-02-11T15:49:26.680Z,4.00
2023-02-11T15:51:55.224Z,10.00
2023-02-11T15:54:26.798Z,7.25
2023-02-11T15:56:55.579Z,6.00
2023-02-11T15:59:28.588Z,5.00
2023-02-11T16:01:57.486Z,5.50
2023-02-11T16:04:26.409Z,4.50
2023-02-11T16:06:54.741Z,5.00
2023-02-11T16:09:32.591Z,6.50
2023-02-11T16:12:01.604Z,4.00
2023-02-11T16:14:31.707Z,7.00
2023-02-11T16:17:01.285Z,3.40
2023-02-11T16:19:29.486Z,4.00
2023-02-11T16:21:57.978Z,4.40
2023-02-11T16:24:29.091Z,4.00
2023-02-11T16:26:57.842Z,2.50
2023-02-11T16:29:27.386Z,2.00
2023-02-11T16:32:05.346Z,6.50
2023-02-11T16:34:33.463Z,3.20
2023-02-11T16:37:01.471Z,5.60
2023-02-11T16:39:30.870Z,4.00
2023-02-11T16:41:58.944Z,4.00
2023-02-11T16:44:26.983Z,4.75
2023-02-11T16:46:55.123Z,4.00
2023-02-11T16:49:24.700Z,4.00
2023-02-11T16:51:53.866Z,5.00
2023-02-11T16:54:21.910Z,4.00
2023-02-11T16:56:51.298Z,4.00
2023-02-11T16:59:19.404Z,7.00
2023-02-11T17:01:47.458Z,7.00
2023-02-11T17:04:18.734Z,4.00
2023-02-11T17:06:48.133Z,10.00
2023-02-11T17:09:19.701Z,10.20
2023-02-11T17:11:47.772Z,3.75
2023-02-11T17:14:17.210Z,6.00
2023-02-11T17:16:46.387Z,7.50
2023-02-11T17:19:15.112Z,8.20
2023-02-11T17:21:43.484Z,10.50
2023-02-11T17:24:11.680Z,12.40
2023-02-11T17:26:40.001Z,8.00
2023-02-11T17:29:08.186Z,12.00
2023-02-11T17:31:37.783Z,7.80
2023-02-11T17:34:05.935Z,5.00
2023-02-11T17:36:34.266Z,3.00
2023-02-11T17:39:02.478Z,2.00
2023-02-11T17:41:30.560Z,2.60
2023-02-11T17:43:59.129Z,3.00
2023-02-11T17:46:28.236Z,2.40
2023-02-11T17:48:58.914Z,2.00
2023-02-11T17:51:27.783Z,1.00
2023-02-11T17:53:56.264Z,3.00
2023-02-11T17:56:24.285Z,3.60
2023-02-11T17:58:53.103Z,2.50
2023-02-11T18:01:21.184Z,4.00
2023-02-11T18:03:49.267Z,3.00
2023-02-11T18:06:19.446Z,1.40
2023-02-11T18:08:47.644Z,4.00
2023-02-11T18:11:16.410Z,2.80
2023-02-11T18:13:45.121Z,7.00
2023-02-11T18:16:15.754Z,5.00
2023-02-11T18:18:44.040Z,6.80
2023-02-11T18:21:13.989Z,4.00
2023-02-11T18:23:43.510Z,3.80
2023-02-11T18:26:11.780Z,3.00
2023-02-11T18:28:40.102Z,5.00
2023-02-11T18:31:08.947Z,7.33
2023-02-11T18:33:37.068Z,2.00
2023-02-11T18:36:06.920Z,2.00
2023-02-11T18:38:35.042Z,4.00
2023-02-11T18:41:04.625Z,1.60
2023-02-11T18:43:34.296Z,3.50
2023-02-11T18:46:02.681Z,5.00
2023-02-11T18:48:30.759Z,3.50
2023-02-11T18:50:58.789Z,4.00
2023-02-11T18:53:26.765Z,9.00
2023-02-11T18:55:55.323Z,3.00
2023-02-11T18:58:24.830Z,3.60
2023-02-11T19:00:52.879Z,4.00
2023-02-11T19:03:21.202Z,3.00
2023-02-11T19:05:50.018Z,11.00
2023-02-11T19:08:18.192Z,2.00
2023-02-11T19:10:47.988Z,2.75
2023-02-11T19:13:16.062Z,2.60
2023-02-11T19:15:46.052Z,3.00
2023-02-11T19:18:14.419Z,4.00
2023-02-11T19:20:42.510Z,2.00
2023-02-11T19:23:10.630Z,3.50
2023-02-11T19:25:38.669Z,3.00
2023-02-11T19:28:06.966Z,3.00
2023-02-11T19:30:36.847Z,3.00
2023-02-11T19:33:08.926Z,2.40
2023-02-11T19:35:38.030Z,5.00
2023-02-11T19:38:06.312Z,2.00
2023-02-11T19:40:34.359Z,4.00
2023-02-11T19:43:02.376Z,4.00
2023-02-11T19:45:30.419Z,7.00
2023-02-11T19:47:58.629Z,5.00
2023-02-11T19:50:28.722Z,2.00
2023-02-11T19:52:56.740Z,5.00
2023-02-11T19:55:24.942Z,7.75
2023-02-11T19:57:52.973Z,3.00
2023-02-11T20:00:21.865Z,8.00
2023-02-11T20:02:49.929Z,4.50
2023-02-11T20:05:18.073Z,4.80
2023-02-11T20:07:47.434Z,5.50
2023-02-11T20:10:15.479Z,3.50
2023-02-11T20:12:43.487Z,4.00
2023-02-11T20:15:11.737Z,4.00
2023-02-11T20:17:39.756Z,1.40
2023-02-11T20:20:08.484Z,11.40
2023-02-11T20:22:36.513Z,10.50
2023-02-11T20:25:06.472Z,2.60
2023-02-11T20:27:34.484Z,8.40
2023-02-11T20:30:02.528Z,3.00
2023-02-11T20:32:32.807Z,8.00
2023-02-11T20:35:00.938Z,5.00
2023-02-11T20:37:29.531Z,3.00
2023-02-11T20:39:58.829Z,8.00
2023-02-11T20:42:28.338Z,5.00
2023-02-11T20:44:56.393Z,5.00
2023-02-11T20:47:24.380Z,8.60
2023-02-11T20:49:52.575Z,1.00
2023-02-11T20:52:20.596Z,7.50
2023-02-11T20:54:48.648Z,4.00
2023-02-11T20:57:16.706Z,7.00
2023-02-11T20:59:46.078Z,5.00
2023-02-11T21:02:14.696Z,4.60
2023-02-11T21:04:42.706Z,7.25
2023-02-11T21:07:11.093Z,3.00
2023-02-11T21:09:40.100Z,8.00
2023-02-11T21:12:08.869Z,3.00
2023-02-11T21:14:36.888Z,6.50
2023-02-11T21:17:06.766Z,10.00
2023-02-11T21:19:34.811Z,4.60
2023-02-11T21:22:02.876Z,4.00
2023-02-11T21:24:31.809Z,10.40
2023-02-11T21:26:59.900Z,3.00
2023-02-11T21:29:27.919Z,4.00
2023-02-11T21:31:56.082Z,5.00
2023-02-11T21:34:25.574Z,5.80
2023-02-11T21:36:53.691Z,6.75
2023-02-11T21:39:21.717Z,8.80
2023-02-11T21:41:49.768Z,5.50
2023-02-11T21:44:17.881Z,11.00
2023-02-11T21:46:46.014Z,7.00
2023-02-11T21:49:14.106Z,9.00
2023-02-11T21:51:43.637Z,4.00
2023-02-11T21:54:12.108Z,6.80
2023-02-11T21:56:40.670Z,7.50
2023-02-11T21:59:08.683Z,3.60
2023-02-11T22:01:36.940Z,3.60
2023-02-11T22:04:05.096Z,2.00
2023-02-11T22:06:34.319Z,3.00
2023-02-11T22:09:05.729Z,2.60
2023-02-11T22:11:33.771Z,4.00
2023-02-11T22:14:01.815Z,3.00
2023-02-11T22:16:30.159Z,7.50
2023-02-11T22:18:58.628Z,4.00
2023-02-11T22:21:27.007Z,8.00
2023-02-11T22:23:55.313Z,7.00
2023-02-11T22:26:25.401Z,5.00
2023-02-11T22:28:53.751Z,11.25
2023-02-11T22:31:22.651Z,3.50
2023-02-11T22:33:50.978Z,5.00
2023-02-11T22:36:20.091Z,3.00
2023-02-11T22:38:48.117Z,5.00
2023-02-11T22:41:16.537Z,7.00
2023-02-11T22:43:45.908Z,4.50
2023-02-11T22:46:15.608Z,4.00
2023-02-11T22:48:43.921Z,7.00
2023-02-11T22:51:13.330Z,10.00
2023-02-11T22:53:41.362Z,2.00
2023-02-11T22:56:10.114Z,4.60
2023-02-11T22:58:38.173Z,8.00
2023-02-11T23:01:07.688Z,9.50
2023-02-11T23:03:35.804Z,8.50
2023-02-11T23:06:03.961Z,4.00
2023-02-11T23:08:32.346Z,5.00
2023-02-11T23:11:04.814Z,8.00
2023-02-11T23:13:33.081Z,9.25
2023-02-11T23:16:03.587Z,7.00
2023-02-11T23:18:32.966Z,7.00
2023-02-11T23:21:04.596Z,4.75
2023-02-11T23:23:32.621Z,7.80
2023-02-11T23:26:00.718Z,7.25
2023-02-11T23:28:28.813Z,7.60
2023-02-11T23:30:56.956Z,7.40
2023-02-11T23:33:24.976Z,8.00
2023-02-11T23:35:54.884Z,7.40
2023-02-11T23:38:23.116Z,7.60
2023-02-11T23:40:51.163Z,2.40
2023-02-11T23:43:19.152Z,9.40
2023-02-11T23:45:48.031Z,8.00
2023-02-11T23:48:16.080Z,3.00
2023-02-11T23:50:44.763Z,3.00
2023-02-11T23:53:14.212Z,5.80
2023-02-11T23:55:42.352Z,7.60
2023-02-11T23:58:11.596Z,4.80
